Terminal Aerodrome Forecast
Issued by NWS

Home | Current Version | Previous Version | Text Only | Print | Product List | Glossary On
Versions: 1 2 3 4 5 6 7 8 9 10 11 12 13 14 15
000
FTUS46 KPDT 230000 AAA
TAFDLS
TAF AMD
KDLS 230008Z 2300/2324 32014G24KT P6SM -SHRA SCT050 BKN100
     FM231000 30008KT P6SM SCT050 BKN100
     FM232000 30010KT P6SM BKN050 BKN100
      TEMPO 2320/2324 -RA BKN050 BKN100=

USA.gov is the U.S. government's official web portal to all federal, state and local government web resources and services.